createdAt,value
2019-03-29T00:04:51.059Z,102799.13
2019-03-29T00:09:57.161Z,102792.72
2019-03-29T00:15:05.249Z,102787.84
2019-03-29T00:20:11.161Z,102791.20
2019-03-29T00:25:16.736Z,102790.48
2019-03-29T00:30:23.553Z,102792.08
2019-03-29T00:35:30.833Z,102790.64
2019-03-29T00:40:39.401Z,102785.89
2019-03-29T00:45:45.167Z,102782.84
2019-03-29T00:50:51.654Z,102778.62
2019-03-29T00:55:57.514Z,102781.32
2019-03-29T01:01:03.458Z,102769.91
2019-03-29T01:06:09.027Z,102764.17
2019-03-29T01:11:14.954Z,102761.33
2019-03-29T01:16:20.712Z,102757.48
2019-03-29T01:21:27.014Z,102757.05
2019-03-29T01:26:34.517Z,102749.70
2019-03-29T01:31:40.240Z,102740.75
2019-03-29T01:36:46.575Z,102742.64
2019-03-29T01:41:53.016Z,102744.48
2019-03-29T01:46:58.830Z,102738.05
2019-03-29T01:52:04.480Z,102737.44
2019-03-29T01:57:10.282Z,102739.86
2019-03-29T02:02:16.225Z,102737.67
2019-03-29T02:07:21.858Z,102739.14
2019-03-29T02:12:28.966Z,102737.57
2019-03-29T02:17:34.855Z,102735.83
2019-03-29T02:22:40.503Z,102734.29
2019-03-29T02:27:46.311Z,102739.42
2019-03-29T02:32:53.473Z,102719.50
2019-03-29T02:38:00.562Z,102721.10
2019-03-29T02:43:06.314Z,102725.17
2019-03-29T02:48:14.095Z,102728.09
2019-03-29T02:53:21.777Z,102732.11
2019-03-29T02:58:27.699Z,102729.62
2019-03-29T03:03:34.369Z,102722.59
2019-03-29T03:08:40.601Z,102722.27
2019-03-29T03:13:46.475Z,102716.46
2019-03-29T03:18:52.456Z,102721.69
2019-03-29T03:23:58.181Z,102722.54
2019-03-29T03:29:05.190Z,102724.24
2019-03-29T03:34:10.956Z,102725.27
2019-03-29T03:39:30.644Z,102724.05
2019-03-29T03:44:24.411Z,102729.77
2019-03-29T03:49:30.384Z,102730.12
2019-03-29T03:54:36.163Z,102735.33
2019-03-29T03:59:45.322Z,102734.27
2019-03-29T04:04:51.138Z,102731.53
2019-03-29T04:09:58.478Z,102735.64
2019-03-29T04:15:05.267Z,102734.73
2019-03-29T04:20:11.485Z,102728.39
2019-03-29T04:25:18.974Z,102735.53
2019-03-29T04:30:24.842Z,102738.55
2019-03-29T04:35:32.093Z,102731.37
2019-03-29T04:40:38.045Z,102738.37
2019-03-29T04:45:44.393Z,102731.30
2019-03-29T04:50:50.043Z,102732.03
2019-03-29T04:55:56.613Z,102732.70
2019-03-29T05:01:02.189Z,102730.57
2019-03-29T05:06:07.797Z,102728.44
2019-03-29T05:11:13.985Z,102735.08
2019-03-29T05:16:19.926Z,102737.72
2019-03-29T05:21:26.397Z,102736.96
2019-03-29T05:26:32.254Z,102729.64
2019-03-29T05:31:39.290Z,102728.66
2019-03-29T05:36:44.880Z,102736.30
2019-03-29T05:41:50.829Z,102733.13
2019-03-29T05:46:56.665Z,102734.06
2019-03-29T05:52:02.568Z,102737.67
2019-03-29T05:57:08.141Z,102740.88
2019-03-29T06:02:13.799Z,102738.24
2019-03-29T06:07:19.559Z,102736.84
2019-03-29T06:12:26.774Z,102735.83
2019-03-29T06:17:32.438Z,102741.48
2019-03-29T06:22:38.599Z,102737.36
2019-03-29T06:27:44.331Z,102732.45
2019-03-29T06:32:50.095Z,102736.64
2019-03-29T06:37:55.839Z,102735.00
2019-03-29T06:43:01.448Z,102726.70
2019-03-29T06:48:08.427Z,102734.20
2019-03-29T06:53:14.961Z,102729.53
2019-03-29T06:58:21.434Z,102728.33
2019-03-29T07:03:27.014Z,102725.49
2019-03-29T07:08:32.599Z,102727.80
2019-03-29T07:13:39.127Z,102730.11
2019-03-29T07:18:45.104Z,102733.18
2019-03-29T07:23:51.113Z,102732.73
2019-03-29T07:28:58.513Z,102741.66
2019-03-29T07:34:04.479Z,102745.02
2019-03-29T07:39:10.450Z,102744.06
2019-03-29T07:44:16.100Z,102740.05
2019-03-29T07:49:22.103Z,102745.13
2019-03-29T07:54:27.785Z,102741.31
2019-03-29T07:59:33.537Z,102740.92
2019-03-29T08:04:39.629Z,102738.47
2019-03-29T08:09:45.888Z,102735.72
2019-03-29T08:14:51.832Z,102735.72
2019-03-29T08:20:35.589Z,102733.45
2019-03-29T08:25:06.764Z,102728.80
2019-03-29T08:30:12.504Z,102740.43
2019-03-29T08:35:18.673Z,102740.47
2019-03-29T08:40:24.897Z,102739.26
2019-03-29T08:45:30.954Z,102736.06
2019-03-29T08:50:38.298Z,102738.25
2019-03-29T08:55:45.927Z,102731.97
2019-03-29T09:00:52.777Z,102736.69
2019-03-29T09:05:58.828Z,102735.21
2019-03-29T09:11:07.417Z,102732.25
2019-03-29T09:16:11.988Z,102723.89
2019-03-29T09:21:17.725Z,102726.74
2019-03-29T09:26:23.973Z,102720.42
2019-03-29T09:31:29.722Z,102727.28
2019-03-29T09:36:35.626Z,102729.14
2019-03-29T09:41:41.468Z,102725.14
2019-03-29T09:46:47.250Z,102725.84
2019-03-29T09:51:53.123Z,102721.30
2019-03-29T09:56:59.192Z,102715.99
2019-03-29T10:02:04.856Z,102719.15
2019-03-29T10:07:10.893Z,102707.59
2019-03-29T10:12:17.168Z,102703.22
2019-03-29T10:17:22.723Z,102707.57
2019-03-29T10:22:28.368Z,102703.62
2019-03-29T10:27:34.205Z,102699.11
2019-03-29T10:32:40.050Z,102704.39
2019-03-29T10:37:47.014Z,102698.58
2019-03-29T10:42:58.007Z,102695.03
2019-03-29T10:48:01.487Z,102681.64
2019-03-29T10:53:07.440Z,102673.61
2019-03-29T10:58:13.531Z,102663.54
2019-03-29T11:03:20.013Z,102656.85
2019-03-29T11:08:25.753Z,102653.61
2019-03-29T11:13:31.656Z,102650.32
2019-03-29T11:18:37.254Z,102647.74
2019-03-29T11:23:43.394Z,102634.75
2019-03-29T11:28:50.576Z,102632.05
2019-03-29T11:33:56.787Z,102624.69
2019-03-29T11:39:02.538Z,102616.47
2019-03-29T11:44:10.555Z,102620.13
2019-03-29T11:49:17.243Z,102615.27
2019-03-29T11:54:23.295Z,102608.38
2019-03-29T11:59:29.868Z,102600.63
2019-03-29T12:04:35.583Z,102600.84
2019-03-29T12:09:41.193Z,102593.14
2019-03-29T12:14:46.839Z,102591.17
2019-03-29T12:19:52.517Z,102580.75
2019-03-29T12:24:59.175Z,102575.84
2019-03-29T12:30:08.657Z,102565.55
2019-03-29T12:35:14.351Z,102564.44
2019-03-29T12:40:21.537Z,102560.98
2019-03-29T12:45:28.551Z,102550.94
2019-03-29T12:50:34.713Z,102541.63
2019-03-29T12:55:40.690Z,102536.86
2019-03-29T13:00:46.963Z,102533.02
2019-03-29T13:05:52.883Z,102523.24
2019-03-29T13:10:59.118Z,102525.50
2019-03-29T13:16:05.535Z,102521.11
2019-03-29T13:21:11.256Z,102502.09
2019-03-29T13:26:18.429Z,102496.06
2019-03-29T13:31:24.859Z,102493.34
2019-03-29T13:36:30.475Z,102481.95
2019-03-29T13:41:36.793Z,102480.52
2019-03-29T13:46:42.411Z,102481.47
2019-03-29T13:51:49.411Z,102475.70
2019-03-29T13:56:55.475Z,102467.44
2019-03-29T14:02:01.345Z,102461.76
2019-03-29T14:07:07.171Z,102453.58
2019-03-29T14:12:15.005Z,102450.87
2019-03-29T14:17:23.535Z,102449.70
2019-03-29T14:22:29.929Z,102442.67
2019-03-29T14:27:35.559Z,102427.56
2019-03-29T14:32:42.649Z,102419.56
2019-03-29T14:37:48.197Z,102405.47
2019-03-29T14:42:54.895Z,102397.92
2019-03-29T14:48:01.029Z,102395.08
2019-03-29T14:53:07.338Z,102390.92
2019-03-29T14:58:13.248Z,102388.66
2019-03-29T15:03:19.034Z,102390.95
2019-03-29T15:08:24.885Z,102371.44
2019-03-29T15:13:30.577Z,102365.34
2019-03-29T15:18:38.729Z,102368.44
2019-03-29T15:23:44.721Z,102364.64
2019-03-29T15:28:51.137Z,102350.77
2019-03-29T15:33:57.595Z,102348.92
2019-03-29T15:39:03.694Z,102343.77
2019-03-29T15:44:10.757Z,102327.45
2019-03-29T15:49:16.645Z,102330.73
2019-03-29T15:54:22.339Z,102322.82
2019-03-29T15:59:28.059Z,102321.27
2019-03-29T16:04:33.862Z,102320.31
2019-03-29T16:09:39.410Z,102320.22
2019-03-29T16:14:45.477Z,102310.99
2019-03-29T16:19:51.866Z,102313.59
2019-03-29T16:24:59.137Z,102297.47
2019-03-29T16:30:07.745Z,102298.94
2019-03-29T16:35:13.496Z,102293.08
2019-03-29T16:40:19.495Z,102295.84
2019-03-29T16:45:25.204Z,102284.74
2019-03-29T16:50:31.186Z,102286.43
2019-03-29T16:55:36.952Z,102276.34
2019-03-29T17:00:43.134Z,102270.63
2019-03-29T17:05:49.291Z,102274.09
2019-03-29T17:10:54.919Z,102265.13
2019-03-29T17:16:02.313Z,102272.43
2019-03-29T17:21:09.041Z,102271.41
2019-03-29T17:26:15.744Z,102277.80
2019-03-29T17:31:22.029Z,102275.30
2019-03-29T17:36:28.025Z,102275.09
2019-03-29T17:41:35.289Z,102266.00
2019-03-29T17:46:41.697Z,102260.75
2019-03-29T17:51:47.956Z,102256.73
2019-03-29T17:56:53.588Z,102255.23
2019-03-29T18:02:09.347Z,102254.41
2019-03-29T18:07:08.312Z,102256.80
2019-03-29T18:12:15.380Z,102256.58
2019-03-29T18:17:21.000Z,102257.78
2019-03-29T18:22:27.059Z,102255.66
2019-03-29T18:27:35.525Z,102257.73
2019-03-29T18:32:42.218Z,102246.13
2019-03-29T18:37:47.820Z,102250.02
2019-03-29T18:42:55.467Z,102242.59
2019-03-29T18:48:01.578Z,102243.63
2019-03-29T18:53:07.601Z,102241.83
2019-03-29T18:58:13.248Z,102240.40
2019-03-29T19:03:19.483Z,102240.48
2019-03-29T19:08:27.102Z,102237.01
2019-03-29T19:13:32.941Z,102235.92
2019-03-29T19:18:38.729Z,102234.36
2019-03-29T19:23:44.603Z,102235.11
2019-03-29T19:28:50.819Z,102226.50
2019-03-29T19:33:58.147Z,102223.14
2019-03-29T19:39:06.568Z,102225.11
2019-03-29T19:44:14.055Z,102217.27
2019-03-29T19:49:21.385Z,102203.97
2019-03-29T19:54:28.160Z,102199.50
2019-03-29T19:59:34.876Z,102198.28
2019-03-29T20:04:40.528Z,102199.61
2019-03-29T20:09:48.257Z,102194.06
2019-03-29T20:14:56.035Z,102185.06
2019-03-29T20:20:05.555Z,102186.16
2019-03-29T20:25:11.721Z,102188.00
2019-03-29T20:30:20.074Z,102182.52
2019-03-29T20:35:28.609Z,102187.79
2019-03-29T20:40:36.204Z,102188.67
2019-03-29T20:45:43.503Z,102189.17
2019-03-29T20:50:49.594Z,102187.85
2019-03-29T20:55:58.295Z,102180.27
2019-03-29T21:01:03.426Z,102176.16
2019-03-29T21:06:10.923Z,102179.27
2019-03-29T21:11:17.192Z,102179.19
2019-03-29T21:16:23.513Z,102177.04
2019-03-29T21:21:30.407Z,102172.71
2019-03-29T21:26:36.979Z,102170.78
2019-03-29T21:31:44.075Z,102157.02
2019-03-29T21:36:50.119Z,102162.42
2019-03-29T21:41:57.325Z,102158.11
2019-03-29T21:47:02.986Z,102157.31
2019-03-29T21:52:09.660Z,102159.45
2019-03-29T21:57:15.531Z,102152.33
2019-03-29T22:03:28.585Z,102147.23
2019-03-29T22:08:35.773Z,102143.17
2019-03-29T22:13:41.353Z,102137.11
2019-03-29T22:18:47.073Z,102133.80
2019-03-29T22:23:52.795Z,102128.81
2019-03-29T22:28:58.357Z,102128.49
2019-03-29T22:34:05.341Z,102128.30
2019-03-29T22:39:11.413Z,102118.72
2019-03-29T22:44:18.628Z,102114.48
2019-03-29T22:49:24.417Z,102109.63
2019-03-29T22:54:29.989Z,102107.90
2019-03-29T22:59:35.954Z,102099.17
2019-03-29T23:04:41.892Z,102094.06
2019-03-29T23:09:47.448Z,102095.08
2019-03-29T23:14:53.969Z,102098.16
2019-03-29T23:20:01.555Z,102101.59
2019-03-29T23:25:07.745Z,102095.69
2019-03-29T23:30:13.862Z,102089.94
2019-03-29T23:35:19.742Z,102074.28
2019-03-29T23:40:25.337Z,102079.56
2019-03-29T23:45:30.962Z,102071.81
2019-03-29T23:50:36.739Z,102073.13
2019-03-29T23:55:42.846Z,102059.55
